Time;durP1;ratioP1;P1;durP2;ratioP2;P2;SDS_P1;SDS_P2;PMS_P1;PMS_P2;Temp;Humidity;BMP_temperature;BMP_pressure;BME280_temperature;BME280_humidity;BME280_pressure;Samples;Min_cycle;Max_cycle;Signal;HPM_P1;HPM_P2
2023/03/16 00:02:02;;;;;;;;;9.00;8.00;27.30;31.70;;;;;;109703;1255;54219;-65
2023/03/16 00:04:29;;;;;;;;;9.00;8.00;27.30;31.80;;;;;;109615;1255;49465;-65
2023/03/16 00:06:56;;;;;;;;;9.00;8.00;27.20;31.90;;;;;;109578;1260;49217;-66
2023/03/16 00:09:29;;;;;;;;;8.00;7.00;27.20;31.80;;;;;;109614;1255;46731;-66
2023/03/16 00:11:58;;;;;;;;;8.00;7.00;27.10;31.70;;;;;;109651;1255;57486;-65
2023/03/16 00:14:25;;;;;;;;;9.00;8.00;27.10;31.80;;;;;;109668;1255;53930;-65
2023/03/16 00:16:52;;;;;;;;;8.50;7.50;27.00;32.10;;;;;;109701;1259;49219;-65
2023/03/16 00:19:18;;;;;;;;;10.00;9.00;26.90;31.60;;;;;;109742;1256;49293;-66
2023/03/16 00:21:44;;;;;;;;;8.00;7.00;26.90;31.70;;;;;;109837;1255;46323;-67
2023/03/16 00:24:11;;;;;;;;;9.00;8.00;26.80;31.70;;;;;;109771;1257;56545;-66
2023/03/16 00:26:37;;;;;;;;;8.00;7.00;26.80;31.70;;;;;;109739;1261;53843;-66
2023/03/16 00:29:04;;;;;;;;;8.00;7.00;26.70;31.60;;;;;;109612;1255;48948;-65
2023/03/16 00:31:32;;;;;;;;;9.00;8.00;26.70;31.70;;;;;;109930;1259;49052;-66
2023/03/16 00:33:58;;;;;;;;;11.00;8.00;26.60;31.60;;;;;;109652;1255;46747;-66
2023/03/16 00:36:25;;;;;;;;;9.00;8.00;26.60;31.70;;;;;;109617;1255;56213;-65
2023/03/16 00:38:52;;;;;;;;;8.50;7.50;26.50;31.70;;;;;;109614;1260;54104;-65
2023/03/16 00:41:19;;;;;;;;;8.00;7.00;26.50;31.70;;;;;;109645;1257;48372;-65
2023/03/16 00:43:45;;;;;;;;;8.00;7.00;26.40;31.70;;;;;;109636;1259;48741;-65
2023/03/16 00:46:14;;;;;;;;;9.00;7.00;26.30;31.70;;;;;;109581;1255;46817;-66
2023/03/16 00:48:42;;;;;;;;;8.00;7.00;26.30;31.70;;;;;;109613;1260;56557;-65
2023/03/16 00:51:14;;;;;;;;;8.00;7.00;26.20;31.90;;;;;;109870;1255;54411;-65
2023/03/16 00:53:42;;;;;;;;;9.00;8.00;26.20;31.80;;;;;;109639;1255;48962;-65
2023/03/16 00:56:09;;;;;;;;;8.00;7.00;26.10;31.90;;;;;;109648;1259;48760;-65
2023/03/16 00:58:37;;;;;;;;;7.00;6.00;26.10;31.70;;;;;;109612;1260;46490;-65
2023/03/16 01:01:07;;;;;;;;;10.00;9.00;26.00;31.70;;;;;;109659;1255;57054;-64
2023/03/16 01:03:34;;;;;;;;;8.00;7.00;26.00;31.70;;;;;;109656;1255;54858;-65
2023/03/16 01:06:09;;;;;;;;;9.00;8.00;25.90;31.70;;;;;;109609;1260;48987;-65
2023/03/16 01:08:36;;;;;;;;;9.00;8.00;25.90;31.70;;;;;;109616;1260;48841;-65
2023/03/16 01:11:06;;;;;;;;;9.00;8.00;25.80;31.70;;;;;;109722;1255;46753;-65
2023/03/16 01:13:32;;;;;;;;;9.00;7.00;25.80;31.80;;;;;;109773;1260;56650;-65
2023/03/16 01:15:59;;;;;;;;;7.67;6.67;25.90;32.00;;;;;;109622;1255;54878;-64
2023/03/16 01:18:26;;;;;;;;;9.00;8.00;25.90;31.70;;;;;;109620;1259;49929;-65
2023/03/16 01:20:53;;;;;;;;;8.00;7.00;26.00;31.70;;;;;;109683;1259;49596;-65
2023/03/16 01:23:20;;;;;;;;;9.00;8.00;26.10;31.80;;;;;;109633;1257;47745;-65
2023/03/16 01:25:51;;;;;;;;;10.00;9.00;26.20;31.80;;;;;;109599;1261;56655;-66
2023/03/16 01:28:23;;;;;;;;;9.00;8.00;26.30;31.80;;;;;;109603;1255;54670;-65
2023/03/16 01:30:54;;;;;;;;;8.00;7.00;26.40;31.80;;;;;;109649;1255;50052;-66
2023/03/16 01:33:21;;;;;;;;;9.00;8.00;26.50;31.70;;;;;;109639;1255;49092;-66
2023/03/16 01:35:54;;;;;;;;;8.00;7.00;26.60;31.90;;;;;;109632;1255;46805;-66
2023/03/16 01:38:20;;;;;;;;;8.00;7.00;26.70;31.70;;;;;;109632;1255;57043;-66
2023/03/16 01:40:51;;;;;;;;;8.00;7.00;26.80;31.80;;;;;;109651;1255;54204;-67
2023/03/16 01:43:19;;;;;;;;;8.00;7.00;26.90;31.50;;;;;;109787;1259;49835;-66
2023/03/16 01:46:03;;;;;;;;;7.00;6.00;27.00;31.50;;;;;;109895;1255;49632;-66
2023/03/16 01:48:58;;;;;;;;;7.50;6.50;27.20;31.50;;;;;;109787;1260;46916;-67
2023/03/16 01:51:35;;;;;;;;;7.50;6.50;27.30;31.50;;;;;;109807;1255;56432;-66
2023/03/16 01:54:08;;;;;;;;;7.50;6.00;27.50;31.50;;;;;;109715;1260;54215;-66
2023/03/16 01:56:42;;;;;;;;;8.00;7.00;27.60;31.40;;;;;;109717;1255;50237;-66
2023/03/16 01:59:13;;;;;;;;;9.00;8.00;27.70;31.30;;;;;;109711;1260;48802;-65
2023/03/16 02:01:40;;;;;;;;;8.00;7.00;27.80;31.30;;;;;;109713;1255;46697;-65
2023/03/16 02:04:23;;;;;;;;;8.00;7.00;27.90;31.30;;;;;;109615;1260;56530;-66
2023/03/16 02:06:49;;;;;;;;;8.00;7.00;27.90;31.20;;;;;;109744;1261;54224;-67
2023/03/16 02:09:17;;;;;;;;;8.00;7.00;28.00;31.30;;;;;;109567;1257;48821;-65
2023/03/16 02:11:44;;;;;;;;;;;28.10;31.10;;;;;;109630;1260;49639;-66
2023/03/16 02:14:11;;;;;;;;;9.00;8.00;28.10;31.10;;;;;;109591;1261;47617;-66
2023/03/16 02:16:38;;;;;;;;;8.00;7.00;28.10;31.00;;;;;;109677;1260;56933;-66
2023/03/16 02:19:11;;;;;;;;;8.00;7.00;28.20;31.00;;;;;;109609;1257;53914;-66
2023/03/16 02:22:15;;;;;;;;;8.00;7.00;28.20;31.00;;;;;;109642;1259;48955;-66
2023/03/16 02:24:41;;;;;;;;;8.00;6.00;28.20;30.90;;;;;;109128;1260;48914;-66
2023/03/16 02:27:11;;;;;;;;;8.00;7.00;28.20;30.80;;;;;;109604;1260;46893;-65
2023/03/16 02:29:56;;;;;;;;;7.50;6.50;28.20;31.00;;;;;;109658;1260;56554;-64
2023/03/16 02:32:24;;;;;;;;;7.00;6.00;28.20;30.70;;;;;;109633;1261;53744;-64
2023/03/16 02:34:50;;;;;;;;;8.00;7.00;28.20;30.80;;;;;;109587;1259;50015;-64
2023/03/16 02:37:17;;;;;;;;;9.00;8.00;28.20;30.70;;;;;;109654;1259;49000;-64
2023/03/16 02:39:43;;;;;;;;;7.00;6.00;28.10;30.90;;;;;;109631;1260;47797;-65
2023/03/16 02:42:13;;;;;;;;;7.00;6.00;28.10;30.60;;;;;;109654;1260;57510;-65
2023/03/16 02:44:42;;;;;;;;;8.00;7.00;28.10;30.70;;;;;;109653;1255;53803;-65
2023/03/16 02:47:17;;;;;;;;;8.00;7.00;28.10;30.70;;;;;;109595;1261;48621;-65
2023/03/16 02:49:44;;;;;;;;;7.00;6.00;28.00;30.80;;;;;;109761;1256;48830;-66
2023/03/16 02:52:11;;;;;;;;;7.00;6.00;28.00;30.60;;;;;;109637;1260;46255;-66
2023/03/16 02:54:37;;;;;;;;;7.00;6.00;28.00;30.60;;;;;;109620;1255;57795;-66
2023/03/16 02:57:03;;;;;;;;;;;27.90;30.60;;;;;;109610;1260;54167;-67
2023/03/16 02:59:30;;;;;;;;;7.00;6.00;27.90;30.60;;;;;;109595;1256;48639;-65
2023/03/16 03:01:56;;;;;;;;;8.00;7.00;27.80;30.60;;;;;;109681;1258;48848;-66
2023/03/16 03:04:23;;;;;;;;;7.00;6.00;27.70;30.60;;;;;;109637;1255;46609;-65
2023/03/16 03:06:50;;;;;;;;;7.00;6.00;27.70;30.60;;;;;;109647;1255;56487;-66
2023/03/16 03:09:17;;;;;;;;;9.00;8.00;27.60;30.80;;;;;;109592;1259;54625;-65
2023/03/16 03:11:45;;;;;;;;;8.00;7.00;27.60;30.60;;;;;;109638;1255;49425;-66
2023/03/16 03:14:15;;;;;;;;;7.00;6.00;27.50;30.80;;;;;;109648;1255;48951;-65
2023/03/16 03:16:45;;;;;;;;;9.00;6.00;27.40;30.80;;;;;;109637;1255;46875;-65
2023/03/16 03:19:12;;;;;;;;;7.50;6.50;27.40;30.80;;;;;;109612;1260;57395;-66
2023/03/16 03:21:39;;;;;;;;;7.00;6.00;27.40;30.70;;;;;;109726;1260;53501;-67
2023/03/16 03:24:06;;;;;;;;;8.00;7.00;27.20;30.60;;;;;;109648;1255;48738;-65
2023/03/16 03:26:33;;;;;;;;;7.00;6.00;27.20;30.60;;;;;;109650;1255;49241;-67
2023/03/16 03:28:59;;;;;;;;;9.33;6.67;27.20;30.70;;;;;;109631;1260;46574;-67
2023/03/16 03:31:25;;;;;;;;;9.00;7.50;27.10;30.60;;;;;;109616;1255;57046;-66
2023/03/16 03:33:52;;;;;;;;;7.00;6.00;27.00;30.60;;;;;;109614;1255;54220;-67
2023/03/16 03:36:18;;;;;;;;;7.00;6.00;26.90;30.60;;;;;;109647;1256;50431;-66
2023/03/16 03:38:45;;;;;;;;;7.50;6.50;26.90;30.60;;;;;;109626;1255;49541;-65
2023/03/16 03:41:11;;;;;;;;;7.00;6.00;26.80;30.60;;;;;;109649;1259;46601;-65
2023/03/16 03:43:37;;;;;;;;;7.00;6.00;26.70;30.70;;;;;;109691;1259;56569;-65
2023/03/16 03:46:04;;;;;;;;;7.00;6.00;26.70;30.80;;;;;;109636;1255;53613;-66
2023/03/16 03:48:31;;;;;;;;;7.00;6.00;26.60;30.60;;;;;;109612;1255;48575;-65
2023/03/16 03:50:57;;;;;;;;;7.00;6.00;26.60;30.40;;;;;;109656;1259;49394;-66
2023/03/16 03:53:23;;;;;;;;;7.00;6.00;26.50;30.90;;;;;;109635;1257;46235;-66
2023/03/16 03:55:49;;;;;;;;;7.00;6.00;26.40;30.60;;;;;;109615;1256;57280;-66
2023/03/16 03:58:16;;;;;;;;;8.00;7.00;26.40;30.60;;;;;;109633;1260;53654;-67
2023/03/16 04:00:42;;;;;;;;;8.00;7.00;26.30;30.90;;;;;;109630;1257;49040;-66
2023/03/16 04:03:08;;;;;;;;;7.00;6.00;26.20;30.60;;;;;;109671;1255;49502;-66
2023/03/16 04:05:34;;;;;;;;;7.00;6.00;26.20;30.70;;;;;;109670;1255;47376;-66
2023/03/16 04:08:00;;;;;;;;;7.75;6.75;26.10;30.70;;;;;;109634;1260;57010;-66
2023/03/16 04:10:28;;;;;;;;;7.00;6.00;26.10;30.70;;;;;;109621;1256;53933;-66
2023/03/16 04:12:55;;;;;;;;;7.50;6.00;26.00;30.70;;;;;;109756;1255;48879;-66
2023/03/16 04:15:22;;;;;;;;;7.00;6.00;25.90;30.90;;;;;;109602;1260;49050;-65
2023/03/16 04:17:48;;;;;;;;;7.00;6.00;25.90;30.70;;;;;;109647;1260;46734;-67
2023/03/16 04:20:18;;;;;;;;;7.00;6.00;25.90;30.70;;;;;;109563;1257;56370;-67
2023/03/16 04:22:45;;;;;;;;;7.00;6.00;26.00;31.00;;;;;;109630;1256;53643;-65
2023/03/16 04:25:14;;;;;;;;;7.50;6.50;26.10;31.00;;;;;;109634;1260;48605;-66
2023/03/16 04:27:42;;;;;;;;;8.00;7.00;26.20;30.80;;;;;;109619;1259;48476;-66
2023/03/16 04:30:11;;;;;;;;;9.00;7.00;26.20;30.70;;;;;;109729;1255;46722;-66
2023/03/16 04:32:38;;;;;;;;;7.00;6.00;26.30;30.90;;;;;;109467;1260;57818;-67
2023/03/16 04:35:05;;;;;;;;;7.00;6.00;26.40;30.70;;;;;;109601;1260;54804;-66
2023/03/16 04:37:33;;;;;;;;;7.00;6.00;26.50;31.10;;;;;;109661;1259;49400;-66
2023/03/16 04:39:59;;;;;;;;;;;26.60;30.60;;;;;;109652;1255;49155;-67
2023/03/16 04:42:25;;;;;;;;;8.50;7.50;26.70;30.60;;;;;;109763;1255;47473;-67
2023/03/16 04:44:52;;;;;;;;;7.00;6.00;26.70;30.60;;;;;;109654;1255;57590;-67
2023/03/16 04:47:18;;;;;;;;;8.00;6.50;26.90;30.80;;;;;;109584;1255;54884;-67
2023/03/16 04:49:45;;;;;;;;;7.00;6.00;27.00;30.60;;;;;;109620;1259;48868;-66
2023/03/16 04:52:11;;;;;;;;;7.00;6.00;27.00;30.50;;;;;;109700;1259;49005;-66
2023/03/16 04:54:37;;;;;;;;;8.00;7.00;27.10;30.50;;;;;;109637;1256;47605;-68
2023/03/16 04:57:04;;;;;;;;;7.00;5.67;27.20;30.50;;;;;;109738;1259;57619;-67
2023/03/16 04:59:30;;;;;;;;;9.00;6.00;27.30;30.50;;;;;;109810;1255;55086;-67
2023/03/16 05:01:56;;;;;;;;;;;27.40;30.50;;;;;;109833;1256;49491;-68
2023/03/16 05:04:23;;;;;;;;;11.00;9.00;27.40;30.40;;;;;;109599;1259;47846;-64
2023/03/16 05:06:50;;;;;;;;;15.00;12.00;27.50;32.00;;;;;;109935;1257;46557;-62
2023/03/16 05:09:16;;;;;;;;;18.50;13.00;27.50;32.10;;;;;;109935;1255;56855;-61
2023/03/16 05:11:43;;;;;;;;;11.50;9.50;27.50;32.30;;;;;;109751;1255;54293;-61
2023/03/16 05:14:09;;;;;;;;;12.00;9.50;27.50;32.60;;;;;;109736;1256;50348;-62
2023/03/16 05:16:36;;;;;;;;;13.00;9.00;27.40;32.90;;;;;;109656;1255;49547;-61
2023/03/16 05:19:03;;;;;;;;;14.33;12.00;27.40;32.90;;;;;;109861;1258;46982;-61
2023/03/16 05:21:30;;;;;;;;;20.00;13.00;27.40;33.00;;;;;;109905;1255;57409;-62
2023/03/16 05:23:57;;;;;;;;;29.00;19.00;27.30;33.00;;;;;;109670;1259;54339;-61
2023/03/16 05:26:26;;;;;;;;;45.00;29.00;27.30;33.90;;;;;;109749;1260;49451;-66
2023/03/16 05:28:52;;;;;;;;;50.00;35.00;27.20;35.30;;;;;;109713;1259;49211;-63
2023/03/16 05:31:18;;;;;;;;;57.00;31.50;27.20;36.00;;;;;;109642;1260;47140;-62
2023/03/16 05:33:45;;;;;;;;;65.00;41.00;27.20;36.90;;;;;;109608;1255;56434;-63
2023/03/16 05:36:11;;;;;;;;;54.00;35.00;27.10;38.00;;;;;;109702;1260;54055;-62
2023/03/16 05:38:38;;;;;;;;;47.00;27.00;27.10;37.70;;;;;;109939;1258;49729;-63
2023/03/16 05:41:04;;;;;;;;;38.00;24.00;27.10;36.00;;;;;;109960;1259;49061;-63
2023/03/16 05:43:31;;;;;;;;;41.00;27.00;27.00;35.50;;;;;;109712;1260;47171;-63
2023/03/16 05:45:57;;;;;;;;;48.00;30.00;27.00;35.70;;;;;;109699;1255;56712;-63
2023/03/16 05:48:26;;;;;;;;;46.00;29.50;26.90;36.80;;;;;;109607;1255;53949;-68
2023/03/16 05:50:52;;;;;;;;;49.00;35.00;26.90;37.30;;;;;;109544;1255;49680;-65
2023/03/16 05:53:19;;;;;;;;;49.50;30.00;26.80;37.10;;;;;;109425;1255;49320;-64
2023/03/16 05:55:51;;;;;;;;;44.00;31.00;26.70;37.30;;;;;;109638;1260;46574;-65
2023/03/16 05:58:17;;;;;;;;;37.50;30.00;26.70;36.50;;;;;;111752;1260;56168;-66
2023/03/16 06:00:43;;;;;;;;;48.00;34.00;26.70;36.70;;;;;;110831;1259;54218;-65
2023/03/16 06:03:10;;;;;;;;;52.50;30.50;26.80;36.10;;;;;;109502;1259;49431;-66
2023/03/16 06:05:36;;;;;;;;;46.00;27.50;26.90;35.60;;;;;;109712;1255;49948;-65
2023/03/16 06:08:02;;;;;;;;;38.00;28.00;26.90;35.30;;;;;;109729;1259;46825;-65
2023/03/16 06:10:28;;;;;;;;;41.00;28.00;26.80;35.40;;;;;;109630;1257;56868;-66
2023/03/16 06:12:55;;;;;;;;;31.00;24.00;26.70;35.30;;;;;;109763;1255;53751;-65
2023/03/16 06:15:23;;;;;;;;;;;26.60;35.20;;;;;;109731;1256;49962;-65
2023/03/16 06:17:50;;;;;;;;;45.00;30.00;26.50;34.50;;;;;;109727;1255;47950;-65
2023/03/16 06:20:17;;;;;;;;;42.00;25.50;26.40;34.80;;;;;;109565;1259;46161;-65
2023/03/16 06:22:43;;;;;;;;;39.50;25.50;26.30;34.70;;;;;;109668;1255;57013;-65
2023/03/16 06:25:11;;;;;;;;;39.00;28.00;26.20;34.60;;;;;;109771;1255;53756;-64
2023/03/16 06:27:38;;;;;;;;;47.00;30.50;26.20;34.80;;;;;;109722;1260;49849;-64
2023/03/16 06:30:07;;;;;;;;;34.00;24.00;26.10;34.50;;;;;;109582;1255;49631;-65
2023/03/16 06:32:36;;;;;;;;;28.00;23.50;26.00;34.40;;;;;;109652;1260;47682;-65
2023/03/16 06:35:04;;;;;;;;;42.00;30.00;25.90;34.30;;;;;;109657;1255;56518;-65
2023/03/16 06:37:31;;;;;;;;;38.00;27.50;25.90;34.20;;;;;;109772;1255;54904;-65
2023/03/16 06:39:57;;;;;;;;;39.00;24.00;25.90;34.10;;;;;;109568;1255;50587;-66
2023/03/16 06:42:23;;;;;;;;;35.67;25.67;25.80;34.00;;;;;;109616;1260;49849;-64
2023/03/16 06:44:51;;;;;;;;;35.00;25.00;25.70;34.00;;;;;;109544;1260;46153;-65
2023/03/16 06:47:18;;;;;;;;;42.00;27.00;25.60;33.90;;;;;;109606;1255;56338;-65
2023/03/16 06:49:45;;;;;;;;;27.00;21.00;25.60;33.70;;;;;;109596;1259;54367;-64
2023/03/16 06:52:13;;;;;;;;;28.50;23.50;25.50;33.60;;;;;;109597;1256;49270;-65
2023/03/16 06:54:40;;;;;;;;;34.00;24.00;25.50;33.60;;;;;;109634;1259;50605;-64
2023/03/16 06:57:06;;;;;;;;;33.00;24.50;25.40;33.40;;;;;;109739;1261;46301;-64
2023/03/16 06:59:33;;;;;;;;;28.00;22.50;25.30;33.30;;;;;;109682;1259;57086;-65
2023/03/16 07:02:00;;;;;;;;;40.00;23.00;25.20;33.40;;;;;;109576;1257;53590;-65
2023/03/16 07:04:26;;;;;;;;;32.50;22.00;25.20;33.50;;;;;;109575;1260;49079;-65
2023/03/16 07:06:53;;;;;;;;;27.00;19.50;25.20;33.50;;;;;;109493;1259;148673;-64
2023/03/16 07:09:20;;;;;;;;;30.00;23.00;25.10;33.20;;;;;;109706;1257;46892;-65
2023/03/16 07:11:47;;;;;;;;;36.00;24.00;25.10;33.20;;;;;;109900;1259;57613;-65
2023/03/16 07:14:13;;;;;;;;;25.00;21.00;25.00;33.30;;;;;;109905;1255;55001;-67
2023/03/16 07:16:39;;;;;;;;;30.00;22.50;24.90;33.10;;;;;;109639;1260;49414;-65
2023/03/16 07:19:05;;;;;;;;;23.00;17.00;24.90;33.30;;;;;;109546;1259;49274;-66
2023/03/16 07:21:38;;;;;;;;;25.00;22.00;24.80;33.00;;;;;;109627;1257;46650;-64
2023/03/16 07:24:06;;;;;;;;;31.00;22.00;24.70;33.00;;;;;;109574;1260;57317;-64
2023/03/16 07:26:32;;;;;;;;;29.00;19.00;24.70;32.90;;;;;;109669;1260;54179;-64
2023/03/16 07:29:00;;;;;;;;;23.00;17.00;24.60;32.80;;;;;;109705;1255;49558;-64
2023/03/16 07:31:26;;;;;;;;;26.00;22.50;24.60;33.00;;;;;;109784;1260;49713;-65
2023/03/16 07:33:52;;;;;;;;;25.00;19.00;24.50;32.80;;;;;;109591;1258;46512;-65
2023/03/16 07:36:19;;;;;;;;;24.00;17.00;24.50;32.70;;;;;;109649;1260;56753;-65
2023/03/16 07:38:45;;;;;;;;;23.00;19.00;24.40;32.70;;;;;;109730;1258;54595;-64
2023/03/16 07:41:12;;;;;;;;;25.00;19.00;24.40;32.70;;;;;;109615;1257;50287;-65
2023/03/16 07:43:39;;;;;;;;;33.00;24.00;24.30;32.70;;;;;;109607;1255;49139;-65
2023/03/16 07:46:05;;;;;;;;;22.00;17.50;24.20;32.60;;;;;;109646;1260;46391;-64
2023/03/16 07:48:31;;;;;;;;;24.50;18.00;24.20;32.60;;;;;;109622;1256;56702;-64
2023/03/16 07:50:57;;;;;;;;;29.00;19.00;24.00;32.50;;;;;;109573;1255;53587;-64
2023/03/16 07:53:24;;;;;;;;;33.50;20.50;24.00;32.70;;;;;;109565;1259;50797;-65
2023/03/16 07:55:50;;;;;;;;;28.50;19.00;23.80;32.70;;;;;;109571;1260;49927;-65
2023/03/16 07:58:17;;;;;;;;;29.50;18.00;23.80;32.80;;;;;;109620;1257;47300;-64
2023/03/16 08:00:43;;;;;;;;;25.50;22.50;23.60;32.90;;;;;;109632;1257;57696;-65
2023/03/16 08:03:09;;;;;;;;;22.33;16.67;23.50;32.50;;;;;;109566;1259;53615;-65
2023/03/16 08:05:36;;;;;;;;;24.50;20.00;23.50;32.80;;;;;;109918;1261;49943;-65
2023/03/16 08:08:02;;;;;;;;;20.00;18.00;23.40;32.80;;;;;;109755;1257;49875;-64
2023/03/16 08:10:29;;;;;;;;;20.00;16.00;23.30;32.80;;;;;;109659;1260;46852;-65
2023/03/16 08:12:56;;;;;;;;;21.50;15.00;23.30;32.50;;;;;;109686;1255;57696;-65
2023/03/16 08:15:23;;;;;;;;;21.00;17.00;23.20;32.90;;;;;;109590;1260;54537;-65
2023/03/16 08:17:51;;;;;;;;;22.00;17.00;23.20;32.90;;;;;;109590;1259;49771;-64
2023/03/16 08:20:17;;;;;;;;;22.50;19.50;23.10;32.80;;;;;;109585;1255;50297;-65
2023/03/16 08:22:45;;;;;;;;;24.00;16.50;23.10;32.90;;;;;;109627;1256;47428;-65
2023/03/16 08:25:11;;;;;;;;;29.00;20.00;23.00;32.90;;;;;;109629;1260;57425;-64
2023/03/16 08:27:37;;;;;;;;;21.00;16.00;23.00;32.90;;;;;;109638;1256;54210;-64
2023/03/16 08:30:06;;;;;;;;;23.00;17.00;22.90;33.10;;;;;;109592;1260;49557;-64
2023/03/16 08:32:33;;;;;;;;;22.00;14.00;22.90;32.90;;;;;;109716;1257;50019;-65
2023/03/16 08:34:59;;;;;;;;;29.00;17.00;22.80;32.90;;;;;;109666;1255;47875;-64
2023/03/16 08:37:27;;;;;;;;;19.00;15.00;22.80;32.90;;;;;;109672;1255;57283;-65
2023/03/16 08:39:53;;;;;;;;;20.00;15.00;22.70;32.90;;;;;;109585;1259;54286;-65
2023/03/16 08:42:20;;;;;;;;;25.33;15.67;22.70;32.90;;;;;;109662;1258;50863;-65
2023/03/16 08:44:46;;;;;;;;;26.00;16.50;22.60;32.90;;;;;;109546;1257;49307;-64
2023/03/16 08:47:13;;;;;;;;;21.00;17.00;22.60;32.90;;;;;;109562;1257;47061;-65
2023/03/16 08:49:40;;;;;;;;;20.00;15.00;22.60;32.90;;;;;;109599;1259;56863;-64
2023/03/16 08:52:09;;;;;;;;;21.00;16.00;22.60;33.20;;;;;;109622;1260;55224;-65
2023/03/16 08:54:35;;;;;;;;;21.50;16.50;22.50;33.00;;;;;;109632;1260;50489;-64
2023/03/16 08:57:02;;;;;;;;;18.00;14.00;22.50;33.00;;;;;;109627;1257;49790;-82
2023/03/16 08:59:28;;;;;;;;;19.00;14.00;22.40;33.00;;;;;;109717;1260;46098;-68
2023/03/16 09:01:55;;;;;;;;;19.00;15.00;22.40;34.40;;;;;;109528;1260;57119;-73
2023/03/16 09:04:22;;;;;;;;;15.00;12.00;22.40;35.30;;;;;;109892;1260;54343;-70
2023/03/16 09:06:50;;;;;;;;;16.00;13.50;22.40;35.30;;;;;;109805;1255;49781;-70
2023/03/16 09:09:17;;;;;;;;;12.67;11.33;22.60;35.80;;;;;;109598;1255;48946;-70
2023/03/16 09:11:44;;;;;;;;;14.33;13.00;22.60;36.00;;;;;;109662;1260;46694;-69
2023/03/16 09:14:13;;;;;;;;;19.00;12.00;22.70;36.20;;;;;;109670;1260;57951;-68
2023/03/16 09:16:39;;;;;;;;;20.00;13.00;22.70;36.30;;;;;;109844;1260;54330;-66
2023/03/16 09:19:06;;;;;;;;;;;22.80;36.40;;;;;;109738;1260;49226;-68
2023/03/16 09:21:35;;;;;;;;;15.50;12.50;22.80;36.50;;;;;;109902;1255;48013;-69
2023/03/16 09:24:01;;;;;;;;;19.00;13.00;22.80;36.30;;;;;;109684;1255;46450;-68
2023/03/16 09:26:28;;;;;;;;;18.00;11.00;22.90;37.00;;;;;;109582;1259;56506;-70
2023/03/16 09:28:55;;;;;;;;;16.50;12.00;22.90;36.70;;;;;;109608;1259;54272;-68
2023/03/16 09:31:21;;;;;;;;;15.00;11.00;23.00;36.60;;;;;;109640;1255;49064;-68
2023/03/16 09:33:48;;;;;;;;;12.50;11.50;23.00;36.50;;;;;;109587;1256;49487;-72
2023/03/16 09:36:14;;;;;;;;;13.00;11.00;23.00;37.00;;;;;;109768;1257;46747;-66
2023/03/16 09:38:42;;;;;;;;;15.00;12.00;23.00;36.60;;;;;;109909;1259;57345;-67
2023/03/16 09:41:35;;;;;;;;;14.00;12.00;23.00;36.50;;;;;;109706;1260;54845;-67
2023/03/16 09:44:21;;;;;;;;;17.00;12.00;23.10;36.10;;;;;;109274;1260;50171;-69
2023/03/16 09:46:49;;;;;;;;;15.00;10.00;23.10;36.40;;;;;;109657;1261;50049;-70
2023/03/16 09:49:19;;;;;;;;;13.00;12.00;23.20;36.50;;;;;;109855;1256;45848;-65
2023/03/16 09:52:05;;;;;;;;;13.00;12.00;23.20;36.30;;;;;;109770;1257;57271;-66
2023/03/16 09:54:56;;;;;;;;;11.00;10.00;23.30;35.50;;;;;;109646;1255;53395;-65
2023/03/16 09:57:29;;;;;;;;;13.00;10.00;23.30;35.60;;;;;;109334;1260;49373;-65
2023/03/16 09:59:59;;;;;;;;;12.00;11.00;23.30;35.60;;;;;;109555;1261;50617;-65
2023/03/16 10:03:23;;;;;;;;;11.67;10.67;23.40;35.30;;;;;;110384;1255;47008;-65
2023/03/16 10:05:56;;;;;;;;;12.00;11.00;23.40;35.20;;;;;;108768;1268;56876;-66
2023/03/16 10:08:25;;;;;;;;;16.00;13.00;23.50;35.10;;;;;;108806;1268;54073;-68
2023/03/16 10:10:57;;;;;;;;;13.00;10.00;23.50;34.80;;;;;;109567;1259;50232;-64
2023/03/16 10:13:39;;;;;;;;;11.00;10.00;23.40;35.00;;;;;;109694;1255;49847;-66
2023/03/16 10:16:51;;;;;;;;;12.00;10.00;23.40;34.70;;;;;;109685;1256;48016;-66
2023/03/16 10:19:22;;;;;;;;;10.00;9.00;23.40;34.60;;;;;;109073;1262;56573;-65
2023/03/16 10:21:51;;;;;;;;;13.00;10.00;23.40;34.60;;;;;;109559;1257;53781;-64
2023/03/16 10:24:33;;;;;;;;;12.33;11.00;23.40;34.70;;;;;;109633;1257;49977;-65
2023/03/16 10:27:02;;;;;;;;;12.00;11.00;23.40;34.40;;;;;;109793;1259;50175;-65
2023/03/16 10:29:31;;;;;;;;;12.00;10.00;23.40;34.40;;;;;;109689;1255;46092;-64
2023/03/16 10:32:11;;;;;;;;;12.00;11.00;23.30;34.70;;;;;;109780;1260;57497;-64
2023/03/16 10:34:37;;;;;;;;;10.50;9.00;23.30;34.70;;;;;;109615;1259;54493;-64
2023/03/16 10:37:04;;;;;;;;;18.50;13.50;23.40;35.00;;;;;;109619;1259;48964;-64
2023/03/16 10:39:41;;;;;;;;;11.00;9.00;23.50;34.80;;;;;;109661;1257;49629;-64
2023/03/16 10:42:16;;;;;;;;;14.00;10.00;23.60;34.80;;;;;;109708;1257;47271;-65
2023/03/16 10:44:44;;;;;;;;;13.00;11.00;23.70;35.00;;;;;;109632;1255;59165;-64
2023/03/16 10:47:21;;;;;;;;;13.00;10.00;23.80;34.70;;;;;;109714;1255;53913;-64
2023/03/16 10:49:50;;;;;;;;;13.50;11.00;23.90;34.60;;;;;;109646;1257;49697;-64
2023/03/16 10:52:22;;;;;;;;;10.00;9.00;24.00;34.50;;;;;;109734;1255;50142;-66
2023/03/16 10:54:53;;;;;;;;;11.50;10.00;24.10;34.50;;;;;;109599;1255;47361;-68
2023/03/16 10:57:34;;;;;;;;;12.00;10.50;24.20;34.40;;;;;;109594;1260;57387;-67
2023/03/16 11:00:22;;;;;;;;;11.00;10.00;24.30;34.40;;;;;;109532;1261;54527;-67
2023/03/16 11:02:50;;;;;;;;;10.50;9.50;24.40;34.50;;;;;;109792;1256;49675;-68
2023/03/16 11:05:16;;;;;;;;;12.00;10.00;24.60;34.50;;;;;;109675;1255;49599;-67
2023/03/16 11:07:51;;;;;;;;;10.50;9.50;24.70;34.20;;;;;;109602;1259;45993;-68
2023/03/16 11:10:31;;;;;;;;;9.00;8.00;24.80;34.00;;;;;;109623;1257;56339;-67
2023/03/16 11:13:16;;;;;;;;;13.50;11.00;24.90;34.40;;;;;;109645;1259;54247;-66
2023/03/16 11:15:50;;;;;;;;;10.50;9.50;25.00;34.50;;;;;;109598;1255;50064;-67
2023/03/16 11:18:30;;;;;;;;;12.00;11.00;25.20;34.20;;;;;;109675;1261;49787;-69
2023/03/16 11:21:21;;;;;;;;;11.00;10.00;25.20;34.00;;;;;;109669;1257;47592;-69
2023/03/16 11:23:52;;;;;;;;;11.00;10.00;25.40;34.10;;;;;;109774;1255;57158;-66
2023/03/16 11:26:32;;;;;;;;;10.00;9.00;25.50;34.20;;;;;;109617;1256;54523;-67
2023/03/16 11:29:08;;;;;;;;;11.00;10.00;25.60;34.20;;;;;;109713;1257;49531;-68
2023/03/16 11:31:48;;;;;;;;;11.00;10.00;25.70;33.90;;;;;;110046;1255;49308;-68
2023/03/16 11:34:18;;;;;;;;;9.00;8.00;25.90;33.90;;;;;;109712;1255;46501;-67
2023/03/16 11:36:54;;;;;;;;;10.00;9.00;26.00;33.60;;;;;;109727;1255;56770;-68
2023/03/16 11:39:25;;;;;;;;;9.00;8.00;26.10;33.80;;;;;;109802;1258;54216;-65
2023/03/16 11:41:57;;;;;;;;;14.33;11.33;26.10;33.50;;;;;;109868;1255;49850;-67
2023/03/16 11:44:23;;;;;;;;;11.00;8.00;26.20;33.60;;;;;;109795;1255;49291;-70
2023/03/16 11:47:08;;;;;;;;;10.00;8.00;26.20;33.60;;;;;;109723;1257;46094;-69
2023/03/16 11:49:55;;;;;;;;;11.00;9.00;26.30;33.30;;;;;;109677;1257;56633;-67
2023/03/16 11:52:50;;;;;;;;;11.00;10.00;26.30;33.40;;;;;;109833;1255;54139;-68
2023/03/16 11:55:41;;;;;;;;;10.50;9.50;26.30;33.30;;;;;;109587;1257;50945;-67
2023/03/16 11:58:42;;;;;;;;;14.00;10.00;26.40;33.20;;;;;;109558;1261;49154;-67
2023/03/16 12:01:38;;;;;;;;;13.00;10.50;26.40;33.60;;;;;;109302;1266;46528;-67
2023/03/16 12:04:27;;;;;;;;;11.00;10.00;26.30;33.50;;;;;;109555;1264;56849;-69
2023/03/16 12:07:34;;;;;;;;;10.00;9.00;26.30;33.50;;;;;;109610;1257;55170;-69
2023/03/16 12:10:22;;;;;;;;;10.50;9.50;26.30;33.20;;;;;;109574;1259;50344;-68
2023/03/16 12:13:18;;;;;;;;;12.00;10.00;26.30;33.20;;;;;;109680;1255;50448;-67
2023/03/16 12:15:52;;;;;;;;;11.00;9.00;26.30;33.30;;;;;;109631;1255;46579;-71
2023/03/16 12:18:23;;;;;;;;;12.00;10.00;26.30;33.10;;;;;;109602;1260;57065;-69
2023/03/16 12:20:57;;;;;;;;;10.00;8.00;26.30;33.20;;;;;;109779;1260;54587;-69
2023/03/16 12:23:53;;;;;;;;;10.00;9.00;26.30;33.20;;;;;;110040;1255;49842;-66
2023/03/16 12:26:21;;;;;;;;;10.00;9.00;26.30;32.60;;;;;;109634;1260;49542;-66
2023/03/16 12:28:49;;;;;;;;;10.00;9.00;26.30;33.50;;;;;;109589;1260;46971;-66
2023/03/16 12:31:19;;;;;;;;;11.00;10.00;26.30;33.20;;;;;;109793;1260;57189;-68
2023/03/16 12:33:52;;;;;;;;;14.00;11.00;26.20;33.00;;;;;;109686;1261;54412;-68
2023/03/16 12:36:18;;;;;;;;;15.00;11.00;26.20;33.70;;;;;;109593;1255;49667;-66
2023/03/16 12:39:04;;;;;;;;;11.00;8.00;26.20;32.60;;;;;;109555;1257;49882;-66
2023/03/16 12:42:01;;;;;;;;;11.00;10.00;26.20;33.20;;;;;;109643;1257;48007;-66
2023/03/16 12:44:37;;;;;;;;;16.00;10.00;26.10;33.00;;;;;;109708;1259;57286;-66